Billington, United Kingdom
Current Conditions -  °F | °C
As of 6:50 PM on Thursday 18 Dec 2014 (Local Time) from EGNO Reporting Station
Moderate Rain Moderate Rain  
Wind Chill: 11°   Ceiling: 1000
Heat Index: 11°   Visibility: 4mi
Dew Point: 10°   Wind: 22mph
Humidity: 94%   Direction: 270°W
Pressure: 29.59"   Gusts: NA
Location:  53.82°N, 2.42°W
Report Text: EGNO 181850Z 27019KT 6000 RA FEW004 SCT006 BKN010 11/10 Q1002
Loading
Personal Weather Stations






























Interactive Weather Map New forecast layout! Learn more

10-Day Weather Forecast

Advertisements
Track Severe Weather on mobile